Time;durP1;ratioP1;P1;durP2;ratioP2;P2;SDS_P1;SDS_P2;PMS_P1;PMS_P2;Temp;Humidity;BMP_temperature;BMP_pressure;BME280_temperature;BME280_humidity;BME280_pressure;Samples;Min_cycle;Max_cycle;Signal;HPM_P1;HPM_P2
2021/01/01 00:00:17;;;;;;;55.12;26.17;;;2.40;99.90;;;;;;1946904;71;21142;-71
2021/01/01 00:02:43;;;;;;;55.25;24.82;;;2.50;99.90;;;;;;1954171;71;21117;-71
2021/01/01 00:05:15;;;;;;;51.30;27.07;;;2.50;99.90;;;;;;1954874;72;21064;-71
2021/01/01 00:07:37;;;;;;;44.05;22.80;;;2.50;99.90;;;;;;1961344;71;21160;-71
2021/01/01 00:10:03;;;;;;;48.87;24.37;;;2.70;99.90;;;;;;1975125;71;21147;-72
2021/01/01 00:12:29;;;;;;;47.62;24.63;;;2.60;99.90;;;;;;1960076;71;21113;-71
2021/01/01 00:14:58;;;;;;;50.58;25.65;;;2.60;99.90;;;;;;1960238;70;21078;-71
2021/01/01 00:17:23;;;;;;;56.85;28.62;;;2.60;99.90;;;;;;1959895;71;21431;-71
2021/01/01 00:19:49;;;;;;;50.23;28.05;;;2.70;99.90;;;;;;1966382;71;21579;-71
2021/01/01 00:22:15;;;;;;;66.45;31.73;;;2.60;99.90;;;;;;1957022;71;21440;-71
2021/01/01 00:24:41;;;;;;;59.35;30.20;;;2.70;99.90;;;;;;1963586;71;21078;-71
2021/01/01 00:27:07;;;;;;;53.90;28.75;;;2.70;99.90;;;;;;1957039;71;21055;-71
2021/01/01 00:29:34;;;;;;;54.95;27.35;;;2.80;99.90;;;;;;1958656;71;21075;-71
2021/01/01 00:32:00;;;;;;;45.45;25.95;;;2.80;99.90;;;;;;1958397;71;21067;-71
2021/01/01 00:34:26;;;;;;;59.60;26.73;;;2.60;99.90;;;;;;1954222;71;21074;-70
2021/01/01 00:36:52;;;;;;;50.92;25.25;;;2.60;99.90;;;;;;1951763;71;21055;-70
2021/01/01 00:39:18;;;;;;;56.90;26.93;;;2.60;99.90;;;;;;1958687;70;21062;-70
2021/01/01 00:41:44;;;;;;;47.10;26.80;;;2.40;99.90;;;;;;1939717;71;21063;-71
2021/01/01 00:44:11;;;;;;;51.77;26.23;;;2.50;99.90;;;;;;1964641;70;21040;-71
2021/01/01 00:46:37;;;;;;;56.70;25.23;;;2.50;99.90;;;;;;1947932;70;21466;-71
2021/01/01 00:49:03;;;;;;;46.83;25.37;;;2.50;99.90;;;;;;1961555;71;21202;-72
2021/01/01 00:51:29;;;;;;;44.33;23.42;;;2.50;99.90;;;;;;1958675;71;21181;-71
2021/01/01 00:53:55;;;;;;;53.35;24.95;;;2.40;99.90;;;;;;1977647;70;21238;-71
2021/01/01 00:56:22;;;;;;;40.25;21.82;;;2.50;99.90;;;;;;1935922;70;21136;-71
2021/01/01 00:58:49;;;;;;;46.65;23.18;;;2.50;99.90;;;;;;1961330;70;21028;-71
2021/01/01 01:01:16;;;;;;;39.58;22.22;;;2.50;99.90;;;;;;1962680;71;21553;-72
2021/01/01 01:03:42;;;;;;;42.35;22.05;;;2.60;99.90;;;;;;1962511;71;21184;-71
2021/01/01 01:06:08;;;;;;;45.45;22.37;;;2.50;99.90;;;;;;1956359;70;21217;-71
2021/01/01 01:08:34;;;;;;;39.50;21.85;;;2.50;99.90;;;;;;1976839;71;21055;-71
2021/01/01 01:11:00;;;;;;;34.10;19.87;;;2.50;99.90;;;;;;1954958;71;21067;-71
2021/01/01 01:13:26;;;;;;;44.67;20.10;;;2.50;99.90;;;;;;1949614;72;21036;-72
2021/01/01 01:15:52;;;;;;;39.18;20.05;;;2.60;99.90;;;;;;1960169;71;21067;-71
2021/01/01 01:18:18;;;;;;;44.23;21.68;;;2.60;99.90;;;;;;1972979;70;21189;-71
2021/01/01 01:20:44;;;;;;;36.90;20.32;;;2.50;99.90;;;;;;1965171;71;21159;-71
2021/01/01 01:23:11;;;;;;;39.63;19.98;;;2.50;99.90;;;;;;1957982;70;21079;-72
2021/01/01 01:25:37;;;;;;;36.60;19.73;;;2.60;99.90;;;;;;1967747;71;21080;-71
2021/01/01 01:28:03;;;;;;;36.20;19.35;;;2.70;99.90;;;;;;1967000;71;21544;-71
2021/01/01 01:30:29;;;;;;;37.40;19.35;;;2.80;99.90;;;;;;1960150;71;21475;-72
2021/01/01 01:32:55;;;;;;;38.70;18.80;;;2.80;99.90;;;;;;1968962;70;21181;-71
2021/01/01 01:35:21;;;;;;;34.88;18.48;;;2.90;99.90;;;;;;1982656;70;21058;-71
2021/01/01 01:37:47;;;;;;;37.38;17.37;;;2.90;99.90;;;;;;1939593;72;21047;-71
2021/01/01 01:40:13;;;;;;;43.65;17.45;;;2.80;99.90;;;;;;1957594;70;21066;-71
2021/01/01 01:42:40;;;;;;;39.53;16.02;;;2.80;99.90;;;;;;1943989;72;21074;-71
2021/01/01 01:45:06;;;;;;;30.70;15.90;;;2.80;99.90;;;;;;1974507;71;21128;-71
2021/01/01 01:47:32;;;;;;;33.25;14.53;;;2.70;99.90;;;;;;1956927;71;21148;-71
2021/01/01 01:49:58;;;;;;;34.75;14.90;;;2.70;99.90;;;;;;1934407;71;21062;-71
2021/01/01 01:52:24;;;;;;;26.70;13.65;;;2.50;99.90;;;;;;1953232;71;21173;-72
2021/01/01 01:54:50;;;;;;;30.27;12.18;;;2.50;99.90;;;;;;1937249;72;21075;-71
2021/01/01 01:57:16;;;;;;;22.80;12.40;;;2.50;99.90;;;;;;1950608;71;21152;-72
2021/01/01 01:59:42;;;;;;;23.98;13.58;;;2.50;99.90;;;;;;1960733;70;21444;-71
2021/01/01 02:02:09;;;;;;;29.35;13.58;;;2.60;99.90;;;;;;1961811;71;21499;-71
2021/01/01 02:04:35;;;;;;;21.07;12.60;;;2.50;99.90;;;;;;1963753;70;21525;-71
2021/01/01 02:07:01;;;;;;;26.87;14.68;;;2.60;99.90;;;;;;1950713;71;21479;-71
2021/01/01 02:09:27;;;;;;;30.17;13.93;;;2.60;99.90;;;;;;1946848;70;21064;-71
2021/01/01 02:11:53;;;;;;;36.17;16.75;;;2.60;99.90;;;;;;1960237;70;21040;-71
2021/01/01 02:14:19;;;;;;;34.98;17.45;;;2.50;99.90;;;;;;1957973;71;21205;-71
2021/01/01 02:16:45;;;;;;;35.45;16.37;;;2.50;99.90;;;;;;1952098;70;21074;-71
2021/01/01 02:19:11;;;;;;;26.37;16.70;;;2.50;99.90;;;;;;1962148;72;21064;-71
2021/01/01 02:21:38;;;;;;;28.07;16.40;;;2.60;99.90;;;;;;1951609;71;21164;-71
2021/01/01 02:24:04;;;;;;;31.87;16.93;;;2.60;99.90;;;;;;1968988;71;21071;-71
2021/01/01 02:26:30;;;;;;;34.80;17.15;;;2.60;99.90;;;;;;1944557;71;21073;-71
2021/01/01 02:28:56;;;;;;;29.25;15.95;;;2.60;99.90;;;;;;1954912;70;21075;-71
2021/01/01 02:31:22;;;;;;;29.90;16.57;;;2.60;99.90;;;;;;1958420;72;21466;-71
2021/01/01 02:33:48;;;;;;;32.67;15.72;;;2.60;99.90;;;;;;1962388;71;21718;-71
2021/01/01 02:36:14;;;;;;;36.35;17.85;;;2.70;99.90;;;;;;1947370;71;21439;-70
2021/01/01 02:38:42;;;;;;;29.90;15.58;;;2.70;99.90;;;;;;1965370;71;21471;-71
2021/01/01 02:41:08;;;;;;;35.10;16.05;;;2.70;99.90;;;;;;1942686;72;21078;-71
2021/01/01 02:43:34;;;;;;;25.62;14.98;;;2.70;99.90;;;;;;1920742;73;21070;-72
2021/01/01 02:46:00;;;;;;;21.55;13.88;;;2.80;99.90;;;;;;1983051;72;21149;-71
2021/01/01 02:48:26;;;;;;;25.37;14.47;;;2.90;99.90;;;;;;1990065;70;21040;-71
2021/01/01 02:50:52;;;;;;;27.73;14.70;;;2.90;99.90;;;;;;1992983;71;21551;-71
2021/01/01 02:53:19;;;;;;;26.80;14.50;;;2.90;99.90;;;;;;1988893;71;21689;-71
2021/01/01 02:55:45;;;;;;;29.52;14.28;;;2.90;99.90;;;;;;1988620;71;21094;-70
2021/01/01 02:58:11;;;;;;;24.25;14.47;;;2.90;99.90;;;;;;1988770;70;21049;-71
2021/01/01 03:00:37;;;;;;;29.50;15.90;;;3.00;99.90;;;;;;1938263;73;21065;-71
2021/01/01 03:03:03;;;;;;;33.92;15.15;;;2.90;99.90;;;;;;1937551;72;21036;-71
2021/01/01 03:05:29;;;;;;;23.27;13.50;;;2.80;99.90;;;;;;1985796;72;21019;-71
2021/01/01 03:07:55;;;;;;;29.30;14.93;;;2.80;99.90;;;;;;1986567;71;21532;-71
2021/01/01 03:10:21;;;;;;;28.92;15.65;;;2.80;99.90;;;;;;1991258;71;21473;-71
2021/01/01 03:12:48;;;;;;;26.35;15.48;;;2.80;99.90;;;;;;1982657;71;21449;-71
2021/01/01 03:15:14;;;;;;;30.45;14.60;;;2.80;99.90;;;;;;1974996;70;21501;-71
2021/01/01 03:17:41;;;;;;;28.17;14.43;;;2.80;99.90;;;;;;1935356;73;21242;-71
2021/01/01 03:20:07;;;;;;;30.37;14.90;;;2.90;99.90;;;;;;1983399;72;21062;-72
2021/01/01 03:22:33;;;;;;;27.87;15.15;;;2.90;99.90;;;;;;1982287;72;21045;-71
2021/01/01 03:24:59;;;;;;;27.05;14.53;;;2.90;99.90;;;;;;1930483;72;21174;-71
2021/01/01 03:27:25;;;;;;;34.78;15.85;;;3.00;99.90;;;;;;1950087;72;21128;-71
2021/01/01 03:29:51;;;;;;;31.70;17.02;;;3.00;99.90;;;;;;1944087;72;21423;-71
2021/01/01 03:32:18;;;;;;;39.20;17.52;;;2.80;99.90;;;;;;1951305;72;21469;-71
2021/01/01 03:34:44;;;;;;;29.45;16.23;;;2.80;99.90;;;;;;1924410;72;21614;-71
2021/01/01 03:37:10;;;;;;;35.65;15.23;;;2.90;99.90;;;;;;1950640;73;21458;-72
2021/01/01 03:39:36;;;;;;;29.48;15.28;;;3.00;99.90;;;;;;1931836;72;21063;-71
2021/01/01 03:42:02;;;;;;;28.98;16.90;;;3.00;99.90;;;;;;1958198;72;21040;-71
2021/01/01 03:44:28;;;;;;;30.25;15.63;;;3.10;99.90;;;;;;1936276;73;21053;-71
2021/01/01 03:46:54;;;;;;;34.35;15.03;;;3.10;99.90;;;;;;1914581;72;21062;-71
2021/01/01 03:49:20;;;;;;;30.27;15.63;;;3.20;99.90;;;;;;1930926;72;21120;-72
2021/01/01 03:51:47;;;;;;;30.95;15.63;;;3.20;99.90;;;;;;1939327;73;21063;-71
2021/01/01 03:54:13;;;;;;;29.67;16.23;;;3.30;99.90;;;;;;1936498;73;21190;-72
2021/01/01 03:56:39;;;;;;;29.25;15.75;;;3.20;99.90;;;;;;1937133;73;21065;-72
2021/01/01 03:59:05;;;;;;;35.10;18.95;;;3.10;99.90;;;;;;1945838;72;21071;-72
2021/01/01 04:01:32;;;;;;;31.17;16.93;;;3.10;99.90;;;;;;1995668;71;21078;-71
2021/01/01 04:03:58;;;;;;;34.78;16.65;;;3.00;99.90;;;;;;1987910;72;21057;-72
2021/01/01 04:06:24;;;;;;;35.55;16.90;;;3.00;99.90;;;;;;1993953;72;21051;-71
2021/01/01 04:08:50;;;;;;;33.70;17.10;;;3.00;99.90;;;;;;1985750;72;21035;-71
2021/01/01 04:11:16;;;;;;;29.80;16.70;;;3.00;99.90;;;;;;1993756;72;21062;-71
2021/01/01 04:13:42;;;;;;;32.88;16.75;;;3.00;99.90;;;;;;1991914;72;21127;-72
2021/01/01 04:16:08;;;;;;;30.97;16.10;;;3.00;99.90;;;;;;1990364;72;21046;-71
2021/01/01 04:18:35;;;;;;;29.80;15.98;;;3.00;99.90;;;;;;1991069;71;21031;-71
2021/01/01 04:21:01;;;;;;;31.07;16.50;;;2.90;99.90;;;;;;1929516;73;21066;-71
2021/01/01 04:23:27;;;;;;;36.70;18.12;;;2.80;99.90;;;;;;1932899;73;21075;-71
2021/01/01 04:25:53;;;;;;;40.60;17.75;;;2.80;99.90;;;;;;1932398;72;21150;-71
2021/01/01 04:28:19;;;;;;;35.92;17.95;;;2.80;99.90;;;;;;1892871;74;21524;-71
2021/01/01 04:30:45;;;;;;;36.42;19.62;;;2.80;99.90;;;;;;1969079;71;21444;-71
2021/01/01 04:33:11;;;;;;;38.45;18.82;;;2.70;99.90;;;;;;1982609;72;21536;-71
2021/01/01 04:35:37;;;;;;;34.70;18.95;;;2.70;99.90;;;;;;1987300;71;21529;-71
2021/01/01 04:38:04;;;;;;;35.00;19.87;;;2.60;99.90;;;;;;1989992;70;21136;-71
2021/01/01 04:40:30;;;;;;;36.40;19.45;;;2.70;99.90;;;;;;1993579;71;21081;-71
2021/01/01 04:42:56;;;;;;;39.30;18.82;;;2.70;99.90;;;;;;1989614;71;21070;-71
2021/01/01 04:45:22;;;;;;;39.78;20.25;;;2.70;99.90;;;;;;1978199;71;21037;-71
2021/01/01 04:47:48;;;;;;;31.17;18.60;;;2.70;99.90;;;;;;1978355;72;21172;-71
2021/01/01 04:50:14;;;;;;;39.63;19.42;;;2.80;99.90;;;;;;1991128;71;22561;-71
2021/01/01 04:52:40;;;;;;;42.43;19.80;;;2.80;99.90;;;;;;1984457;72;21265;-71
2021/01/01 04:55:07;;;;;;;34.83;19.65;;;2.80;99.90;;;;;;1979113;71;21028;-71
2021/01/01 04:57:33;;;;;;;38.10;19.82;;;2.80;99.90;;;;;;1936200;72;21064;-71
2021/01/01 04:59:59;;;;;;;46.30;18.32;;;2.70;99.90;;;;;;1985964;72;21055;-71
2021/01/01 05:02:25;;;;;;;38.90;20.75;;;2.70;99.90;;;;;;1987668;71;21054;-71
2021/01/01 05:04:57;;;;;;;53.52;19.52;;;2.70;99.90;;;;;;1985825;71;21180;-71
2021/01/01 05:07:19;;;;;;;38.95;19.00;;;2.70;99.90;;;;;;1961021;72;21159;-72
2021/01/01 05:09:45;;;;;;;33.67;18.50;;;2.70;99.90;;;;;;1948823;73;21041;-71
2021/01/01 05:12:11;;;;;;;33.42;17.95;;;2.70;99.90;;;;;;1944833;72;21064;-71
2021/01/01 05:14:37;;;;;;;37.73;17.62;;;2.80;99.90;;;;;;1951102;72;21145;-72
2021/01/01 05:17:04;;;;;;;38.02;18.67;;;3.00;99.90;;;;;;1952669;71;21074;-71
2021/01/01 05:19:30;;;;;;;36.50;19.17;;;2.90;99.90;;;;;;1939686;71;21041;-71
2021/01/01 05:21:56;;;;;;;36.45;18.52;;;2.90;99.90;;;;;;1959804;71;21120;-71
2021/01/01 05:24:22;;;;;;;39.05;19.23;;;2.90;99.90;;;;;;1945842;72;21066;-71
2021/01/01 05:26:48;;;;;;;33.73;16.82;;;2.90;99.90;;;;;;1950137;72;21069;-72
2021/01/01 05:29:17;;;;;;;29.50;15.88;;;2.90;99.90;;;;;;1937722;72;21488;-72
2021/01/01 05:31:42;;;;;;;28.77;16.27;;;2.90;99.90;;;;;;1952559;72;21107;-72
2021/01/01 05:34:08;;;;;;;30.72;17.17;;;2.80;99.90;;;;;;1951966;73;21035;-71
2021/01/01 05:36:35;;;;;;;30.50;17.27;;;2.80;99.90;;;;;;1954235;72;21131;-71
2021/01/01 05:39:02;;;;;;;27.20;15.80;;;2.90;99.90;;;;;;1961134;73;21188;-71
2021/01/01 05:41:28;;;;;;;38.13;15.10;;;3.00;99.90;;;;;;1953545;72;21072;-71
2021/01/01 05:43:54;;;;;;;25.02;14.35;;;3.10;99.90;;;;;;1960035;72;21180;-71
2021/01/01 05:46:20;;;;;;;27.80;14.05;;;3.10;99.90;;;;;;1947540;72;21071;-72
2021/01/01 05:48:46;;;;;;;26.87;13.72;;;3.00;99.90;;;;;;1953619;73;21058;-71
2021/01/01 05:51:12;;;;;;;26.37;13.55;;;3.00;99.90;;;;;;1956875;73;21072;-71
2021/01/01 05:53:38;;;;;;;25.25;13.10;;;3.10;99.90;;;;;;1954100;72;21076;-72
2021/01/01 05:56:04;;;;;;;23.22;12.90;;;3.10;99.90;;;;;;1956086;73;21110;-71
2021/01/01 05:58:30;;;;;;;21.68;11.65;;;3.10;99.90;;;;;;1942453;72;21072;-71
2021/01/01 06:00:58;;;;;;;21.27;11.80;;;3.00;99.90;;;;;;1943352;72;21084;-71
2021/01/01 06:03:24;;;;;;;28.23;13.00;;;3.00;99.90;;;;;;1945564;73;21139;-71
2021/01/01 06:05:50;;;;;;;25.05;11.97;;;3.10;99.90;;;;;;1948726;73;21076;-71
2021/01/01 06:08:16;;;;;;;19.87;11.78;;;3.10;99.90;;;;;;1953296;73;21269;-71
2021/01/01 06:10:42;;;;;;;24.77;12.25;;;3.00;99.90;;;;;;1950248;72;21039;-71
2021/01/01 06:13:08;;;;;;;25.10;12.20;;;3.10;99.90;;;;;;1953990;72;21066;-71
2021/01/01 06:15:35;;;;;;;19.52;10.43;;;3.20;99.90;;;;;;1946751;72;21147;-71
2021/01/01 06:18:01;;;;;;;17.85;10.30;;;3.20;99.90;;;;;;1936642;72;21624;-71
2021/01/01 06:20:27;;;;;;;22.20;11.53;;;3.10;99.90;;;;;;1945305;72;21424;-71
2021/01/01 06:22:53;;;;;;;20.17;11.55;;;3.00;99.90;;;;;;1948817;72;21690;-71
2021/01/01 06:25:19;;;;;;;19.95;11.40;;;2.90;99.90;;;;;;1949354;72;21597;-71
2021/01/01 06:27:45;;;;;;;20.85;11.00;;;2.90;99.90;;;;;;1949991;73;21067;-71
2021/01/01 06:30:11;;;;;;;29.67;14.15;;;3.00;99.90;;;;;;1947260;71;21067;-71
2021/01/01 06:32:37;;;;;;;25.65;13.13;;;3.10;99.90;;;;;;1950046;72;21045;-71
2021/01/01 06:35:03;;;;;;;23.77;12.13;;;3.10;99.90;;;;;;1950974;72;21062;-71
2021/01/01 06:37:30;;;;;;;28.77;13.58;;;3.10;99.90;;;;;;1947141;72;21072;-72
2021/01/01 06:39:56;;;;;;;18.67;10.80;;;3.00;99.90;;;;;;1952875;71;21076;-72
2021/01/01 06:42:22;;;;;;;28.40;13.50;;;3.00;99.90;;;;;;1949742;73;21068;-71
2021/01/01 06:44:48;;;;;;;22.22;12.63;;;3.10;99.90;;;;;;1950664;72;21041;-71
2021/01/01 06:47:14;;;;;;;25.00;12.35;;;3.10;99.90;;;;;;1950004;72;21066;-71
2021/01/01 06:49:40;;;;;;;29.25;13.43;;;3.10;99.90;;;;;;1944171;73;21142;-72
2021/01/01 06:52:06;;;;;;;25.70;12.90;;;3.10;99.90;;;;;;1944994;72;21133;-71
2021/01/01 06:54:32;;;;;;;29.82;12.37;;;3.20;99.90;;;;;;1952029;72;21041;-71
2021/01/01 06:56:59;;;;;;;26.97;12.23;;;3.10;99.90;;;;;;1960628;73;21136;-71
2021/01/01 06:59:25;;;;;;;22.42;12.60;;;3.10;99.90;;;;;;1960470;72;21132;-71
2021/01/01 07:01:51;;;;;;;27.40;14.80;;;3.10;99.90;;;;;;1942589;72;21143;-71
2021/01/01 07:04:17;;;;;;;27.58;14.05;;;3.00;99.90;;;;;;1957286;73;21136;-71
2021/01/01 07:06:43;;;;;;;21.68;12.95;;;3.00;99.90;;;;;;1948136;72;21439;-71
2021/01/01 07:09:09;;;;;;;22.65;12.60;;;3.10;99.90;;;;;;1939513;72;21455;-72
2021/01/01 07:11:35;;;;;;;25.00;13.10;;;3.10;99.90;;;;;;1957540;73;21479;-71
2021/01/01 07:14:01;;;;;;;20.43;9.90;;;3.10;99.90;;;;;;1952712;72;21563;-71
2021/01/01 07:16:27;;;;;;;15.48;8.65;;;3.10;99.90;;;;;;1956516;73;21124;-71
2021/01/01 07:18:54;;;;;;;9.73;6.53;;;3.10;99.90;;;;;;1943671;72;21061;-71
2021/01/01 07:21:20;;;;;;;7.20;4.83;;;3.10;99.90;;;;;;1956111;72;21185;-71
2021/01/01 07:23:46;;;;;;;8.98;4.75;;;3.10;99.90;;;;;;1955352;72;21146;-71
2021/01/01 07:26:12;;;;;;;5.70;3.95;;;3.10;99.90;;;;;;1954335;72;21141;-71
2021/01/01 07:28:38;;;;;;;7.03;3.20;;;3.10;99.90;;;;;;1957043;73;21118;-71
2021/01/01 07:31:04;;;;;;;4.15;3.15;;;3.10;99.90;;;;;;1963846;72;21068;-71
2021/01/01 07:33:30;;;;;;;4.40;3.00;;;3.10;99.90;;;;;;1951800;72;21062;-72
2021/01/01 07:35:56;;;;;;;6.50;3.33;;;3.10;99.90;;;;;;1955224;72;21045;-71
2021/01/01 07:38:23;;;;;;;4.37;3.50;;;3.10;99.90;;;;;;1953478;73;21137;-71
2021/01/01 07:40:49;;;;;;;5.05;3.05;;;3.10;99.90;;;;;;1955798;72;21079;-71
2021/01/01 07:43:15;;;;;;;3.83;3.35;;;3.10;99.90;;;;;;1945793;73;21488;-71
2021/01/01 07:45:41;;;;;;;4.67;3.05;;;3.20;99.90;;;;;;1953036;72;21488;-71
2021/01/01 07:48:07;;;;;;;6.50;3.52;;;3.10;99.90;;;;;;1958499;73;21542;-71
2021/01/01 07:50:33;;;;;;;5.20;3.27;;;3.10;99.90;;;;;;1944861;71;21190;-71
2021/01/01 07:52:59;;;;;;;4.42;3.15;;;3.20;99.90;;;;;;1955085;72;21053;-71
2021/01/01 07:55:25;;;;;;;4.85;3.10;;;3.20;99.90;;;;;;1935550;72;21027;-72
2021/01/01 07:57:51;;;;;;;4.92;3.27;;;3.20;99.90;;;;;;1957729;72;21144;-71
2021/01/01 08:00:18;;;;;;;4.45;3.02;;;3.10;99.90;;;;;;1939924;73;21122;-71
2021/01/01 08:02:44;;;;;;;8.18;3.10;;;3.10;99.90;;;;;;1948221;72;21125;-71
2021/01/01 08:05:10;;;;;;;6.12;3.35;;;3.10;99.90;;;;;;1945295;72;21144;-71
2021/01/01 08:07:36;;;;;;;3.65;2.90;;;3.00;99.90;;;;;;1946136;73;21084;-71
2021/01/01 08:10:02;;;;;;;6.53;3.02;;;3.00;99.90;;;;;;1957809;73;21181;-71
2021/01/01 08:12:28;;;;;;;3.67;3.17;;;3.10;99.90;;;;;;1956205;72;21096;-71
2021/01/01 08:14:55;;;;;;;4.50;3.15;;;3.10;99.90;;;;;;1957489;72;21066;-73
2021/01/01 08:17:21;;;;;;;3.42;2.87;;;3.10;99.90;;;;;;1953173;72;21113;-74
2021/01/01 08:19:47;;;;;;;4.62;2.75;;;3.10;99.90;;;;;;1952556;72;21063;-75
2021/01/01 08:22:14;;;;;;;3.52;2.50;;;3.10;99.90;;;;;;1956611;72;21082;-74
2021/01/01 08:24:40;;;;;;;3.60;2.45;;;3.10;99.90;;;;;;1948190;72;21658;-74
2021/01/01 08:27:06;;;;;;;3.45;2.50;;;3.10;99.90;;;;;;1954375;72;21552;-74
2021/01/01 08:29:32;;;;;;;4.80;2.35;;;3.10;99.90;;;;;;1961445;72;21482;-74
2021/01/01 08:31:58;;;;;;;2.70;2.17;;;3.10;99.90;;;;;;1960214;71;21059;-75
2021/01/01 08:34:24;;;;;;;3.37;2.45;;;3.00;99.90;;;;;;1955588;73;21068;-74
2021/01/01 08:36:52;;;;;;;2.83;2.15;;;3.00;99.90;;;;;;1951819;72;21062;-74
2021/01/01 08:39:18;;;;;;;4.58;2.40;;;2.90;99.90;;;;;;1955804;73;21068;-75
2021/01/01 08:41:44;;;;;;;3.45;2.47;;;2.80;99.90;;;;;;1948932;73;21037;-76
2021/01/01 08:44:10;;;;;;;3.77;2.25;;;2.80;99.90;;;;;;1951266;73;21058;-75
2021/01/01 08:46:36;;;;;;;2.15;1.90;;;2.90;99.90;;;;;;1957953;71;21067;-76
2021/01/01 08:49:02;;;;;;;2.15;1.95;;;3.10;99.90;;;;;;1952019;72;21065;-76
2021/01/01 08:51:28;;;;;;;3.33;2.37;;;3.20;99.90;;;;;;1947709;73;21199;-76
2021/01/01 08:53:55;;;;;;;2.33;1.72;;;3.40;99.90;;;;;;1946248;72;21130;-76
2021/01/01 08:56:21;;;;;;;3.37;2.10;;;3.50;99.90;;;;;;1950164;71;21140;-76
2021/01/01 08:58:47;;;;;;;3.92;2.25;;;3.50;99.90;;;;;;1954722;73;21072;-76
2021/01/01 09:01:13;;;;;;;3.15;2.50;;;3.60;99.90;;;;;;1941785;73;21417;-76
2021/01/01 09:03:39;;;;;;;2.47;1.98;;;3.70;99.90;;;;;;1954711;72;21471;-76
2021/01/01 09:06:05;;;;;;;2.25;1.98;;;3.70;99.90;;;;;;1953154;72;21526;-75
2021/01/01 09:08:33;;;;;;;2.35;2.00;;;3.70;99.90;;;;;;1946123;71;21143;-76
2021/01/01 09:10:59;;;;;;;2.25;2.05;;;3.60;99.90;;;;;;1952857;72;21072;-76
2021/01/01 09:13:30;;;;;;;3.27;2.33;;;3.60;99.90;;;;;;1955172;72;21084;-76
2021/01/01 09:15:55;;;;;;;;;;;3.50;99.90;;;;;;1955605;71;21108;-76
2021/01/01 09:18:21;;;;;;;2.27;2.05;;;3.50;99.90;;;;;;1959583;72;20146;-76
2021/01/01 09:20:47;;;;;;;3.02;2.20;;;3.50;99.90;;;;;;1948255;72;21068;-75
2021/01/01 09:23:14;;;;;;;3.42;2.27;;;3.70;99.90;;;;;;1944012;72;21035;-75
2021/01/01 09:25:43;;;;;;;2.40;2.17;;;3.70;99.90;;;;;;1946359;71;21180;-75
2021/01/01 09:28:09;;;;;;;5.72;1.80;;;3.80;99.90;;;;;;1956195;71;21058;-75
2021/01/01 09:30:35;;;;;;;5.20;2.50;;;3.80;99.90;;;;;;1942976;72;21194;-73
2021/01/01 09:33:01;;;;;;;2.58;1.98;;;3.90;99.90;;;;;;1955744;71;21080;-74
2021/01/01 09:35:27;;;;;;;4.15;2.45;;;3.80;99.90;;;;;;1950598;72;21035;-76
2021/01/01 09:37:54;;;;;;;3.00;2.45;;;3.80;99.90;;;;;;1934361;72;21031;-79
2021/01/01 09:40:20;;;;;;;4.12;2.22;;;3.80;99.90;;;;;;1950678;71;21055;-79
2021/01/01 09:42:46;;;;;;;3.77;2.20;;;3.90;99.90;;;;;;1957763;71;21058;-77
2021/01/01 09:45:12;;;;;;;4.00;2.27;;;3.90;99.90;;;;;;1949854;72;21076;-74
2021/01/01 09:47:38;;;;;;;2.15;1.87;;;3.90;99.90;;;;;;1944970;73;21080;-75
2021/01/01 09:50:04;;;;;;;4.72;2.30;;;4.00;99.90;;;;;;1948136;71;21537;-77
2021/01/01 09:52:30;;;;;;;4.17;2.50;;;3.90;99.90;;;;;;1941404;72;21443;-77
2021/01/01 09:54:56;;;;;;;2.98;2.37;;;3.80;99.90;;;;;;1949288;72;21492;-82
2021/01/01 09:57:23;;;;;;;2.72;2.42;;;3.70;99.90;;;;;;1955541;72;21068;-76
2021/01/01 09:59:49;;;;;;;3.15;2.50;;;3.50;99.90;;;;;;1950180;72;21068;-75
2021/01/01 10:02:15;;;;;;;5.10;3.02;;;3.60;99.90;;;;;;1945308;72;21070;-74
2021/01/01 10:04:41;;;;;;;2.35;2.10;;;3.70;99.90;;;;;;1957461;71;21114;-75
2021/01/01 10:07:07;;;;;;;2.98;2.25;;;3.80;99.90;;;;;;1950885;73;21140;-73
2021/01/01 10:09:33;;;;;;;2.87;2.40;;;4.00;99.90;;;;;;1956165;71;21032;-77
2021/01/01 10:11:59;;;;;;;5.62;2.65;;;4.00;99.90;;;;;;1957153;72;21126;-76
2021/01/01 10:14:25;;;;;;;8.30;3.02;;;4.10;99.90;;;;;;1936783;72;21068;-78
2021/01/01 10:16:51;;;;;;;3.80;2.60;;;4.10;99.90;;;;;;1952989;73;21125;-78
2021/01/01 10:19:18;;;;;;;4.50;2.67;;;4.00;99.90;;;;;;1957866;72;21062;-81
2021/01/01 10:21:44;;;;;;;3.20;2.12;;;3.90;99.90;;;;;;1950100;72;21222;-80
2021/01/01 10:24:10;;;;;;;8.05;2.95;;;3.90;99.90;;;;;;1947700;71;21035;-79
2021/01/01 10:26:36;;;;;;;4.60;2.90;;;3.90;99.90;;;;;;1951870;72;21519;-75
2021/01/01 10:29:02;;;;;;;4.35;2.87;;;4.00;99.90;;;;;;1951376;73;21559;-78
2021/01/01 10:31:28;;;;;;;4.22;2.72;;;4.10;99.90;;;;;;1948379;72;21477;-77
2021/01/01 10:33:54;;;;;;;9.10;2.20;;;4.10;99.90;;;;;;1958650;71;21364;-79
2021/01/01 10:36:20;;;;;;;3.45;2.60;;;4.10;99.90;;;;;;1954940;71;21328;-79
2021/01/01 10:38:47;;;;;;;5.22;2.77;;;4.10;99.90;;;;;;1947673;72;21053;-75
2021/01/01 10:41:13;;;;;;;4.58;2.80;;;4.10;99.90;;;;;;1935844;72;21214;-75
2021/01/01 10:43:39;;;;;;;8.38;2.40;;;4.40;99.90;;;;;;1957175;72;21070;-76
2021/01/01 10:46:05;;;;;;;4.40;2.50;;;4.40;99.90;;;;;;1939092;72;21066;-78
2021/01/01 10:48:31;;;;;;;3.08;2.55;;;4.50;99.90;;;;;;1950619;72;21059;-77
2021/01/01 10:50:57;;;;;;;8.78;2.85;;;4.30;99.90;;;;;;1947384;72;21139;-75
2021/01/01 10:53:23;;;;;;;5.28;2.50;;;4.30;99.90;;;;;;1951524;72;21041;-75
2021/01/01 10:55:52;;;;;;;15.98;2.98;;;4.30;99.90;;;;;;1957260;71;21059;-74
2021/01/01 10:58:23;;;;;;;3.75;2.35;;;4.30;99.90;;;;;;1946167;72;21056;-73
2021/01/01 11:00:46;;;;;;;4.75;2.52;;;4.30;99.90;;;;;;1944732;72;21197;-75
2021/01/01 11:03:12;;;;;;;2.47;2.25;;;4.30;99.90;;;;;;1940544;72;21136;-74
2021/01/01 11:05:39;;;;;;;3.90;2.50;;;4.30;99.90;;;;;;1953406;71;21035;-73
2021/01/01 11:08:05;;;;;;;2.83;2.30;;;4.30;99.90;;;;;;1940300;72;21127;-74
2021/01/01 11:10:31;;;;;;;2.30;2.00;;;4.40;99.90;;;;;;1952060;73;21068;-75
2021/01/01 11:12:58;;;;;;;6.50;2.20;;;4.40;99.90;;;;;;1944184;72;21128;-75
2021/01/01 12:19:40;;;;;;;3.08;2.50;;;4.40;99.90;;;;;;1957756;72;21076;-75
2021/01/01 12:21:16;;;;;;;5.15;3.85;;;4.50;99.90;;;;;;1943357;70;21055;-74
2021/01/01 12:23:41;;;;;;;6.37;4.10;;;4.50;99.90;;;;;;1941802;70;21140;-74
2021/01/01 12:26:01;;;;;;;4.37;3.27;;;4.60;99.90;;;;;;1968851;71;21128;-73
2021/01/01 12:28:27;;;;;;;6.42;3.40;;;4.60;99.90;;;;;;1959874;71;21053;-74
2021/01/01 12:30:53;;;;;;;5.40;3.52;;;4.60;99.90;;;;;;1962144;71;21057;-75
2021/01/01 12:33:19;;;;;;;5.97;3.62;;;4.50;99.90;;;;;;1978698;71;21128;-75
2021/01/01 12:35:45;;;;;;;3.87;3.25;;;4.50;99.90;;;;;;1990634;70;21054;-73
2021/01/01 12:38:13;;;;;;;4.33;3.00;;;4.50;99.90;;;;;;1992022;70;21093;-75
2021/01/01 12:40:39;;;;;;;5.62;4.03;;;4.50;99.90;;;;;;1985472;70;21174;-79
2021/01/01 12:43:05;;;;;;;7.67;4.08;;;4.60;99.90;;;;;;1985638;70;21486;-77
2021/01/01 12:45:31;;;;;;;5.85;2.90;;;4.50;99.90;;;;;;1984346;72;21474;-75
2021/01/01 12:47:57;;;;;;;6.92;3.22;;;4.40;99.90;;;;;;1992086;70;21128;-73
2021/01/01 12:50:24;;;;;;;12.05;6.30;;;4.20;99.90;;;;;;1989721;71;21066;-73
2021/01/01 12:52:50;;;;;;;6.28;3.83;;;4.20;99.90;;;;;;1984537;71;21036;-73
2021/01/01 12:55:16;;;;;;;4.47;3.67;;;4.10;99.90;;;;;;1988681;71;21209;-73
2021/01/01 12:57:42;;;;;;;4.35;3.08;;;4.10;99.90;;;;;;1993751;70;21058;-73
2021/01/01 13:00:08;;;;;;;3.45;2.83;;;4.00;99.90;;;;;;1991299;70;21074;-73
2021/01/01 13:02:34;;;;;;;6.85;3.08;;;4.00;99.90;;;;;;1988885;71;21070;-74
2021/01/01 13:05:00;;;;;;;5.00;3.60;;;4.00;99.90;;;;;;1943884;72;21162;-73
2021/01/01 13:07:26;;;;;;;5.95;3.62;;;4.10;99.90;;;;;;1936688;72;21467;-74
2021/01/01 13:09:53;;;;;;;7.35;3.70;;;4.20;99.90;;;;;;1920225;74;21625;-75
2021/01/01 13:12:19;;;;;;;8.88;3.37;;;4.40;99.90;;;;;;1950552;72;21492;-74
2021/01/01 13:14:45;;;;;;;4.58;3.02;;;4.40;99.90;;;;;;1951801;72;21066;-74
2021/01/01 13:17:11;;;;;;;8.23;3.87;;;4.30;99.90;;;;;;1931664;72;21137;-75
2021/01/01 13:19:37;;;;;;;7.00;3.40;;;4.40;99.90;;;;;;1935643;72;21092;-77
2021/01/01 13:22:03;;;;;;;6.83;3.60;;;4.50;99.90;;;;;;1983954;72;21177;-79
2021/01/01 13:24:29;;;;;;;7.12;3.15;;;4.50;99.90;;;;;;1986347;70;21115;-78
2021/01/01 13:26:57;;;;;;;5.35;3.02;;;4.50;99.90;;;;;;1985164;71;21490;-78
2021/01/01 13:29:23;;;;;;;6.97;3.60;;;4.50;99.90;;;;;;1984006;71;21532;-78
2021/01/01 13:31:49;;;;;;;5.90;3.67;;;4.50;99.90;;;;;;1963642;72;21445;-78
2021/01/01 13:34:15;;;;;;;5.95;3.27;;;4.40;99.90;;;;;;1974571;71;21019;-76
2021/01/01 13:36:42;;;;;;;6.70;3.67;;;4.20;99.90;;;;;;1993752;71;21057;-77
2021/01/01 13:39:08;;;;;;;7.05;4.22;;;4.20;99.90;;;;;;1984686;71;21288;-76
2021/01/01 13:41:34;;;;;;;6.22;3.27;;;4.30;99.90;;;;;;1986425;70;21135;-76